Terminal Aerodrome Forecast
Issued by NWS

Home | Current Version | Previous Version | Text Only | Print | Product List | Glossary On
Versions: 1 2 3 4 5 6 7 8 9 10 11 12 13 14 15 16 17 18 19 20 21 22 23 24 25 26 27 28 29 30 31 32 33 34 35 36
000
FTAK31 PANC 290540
TAFADL
TAF
PADL 290540Z 2906/3006 22006KT P6SM FEW050 BKN120
     FM291200 VRB02KT P6SM VCFG SCT005 BKN012
     FM291400 VRB03KT 1SM BR BKN005 BKN012
     FM292000 06006KT P6SM SCT012 BKN025
     FM292200 06006KT P6SM SCT025 BKN035
     FM300200 06006KT P6SM SCT035=

USA.gov is the U.S. government's official web portal to all federal, state and local government web resources and services.